Time;durP1;ratioP1;P1;durP2;ratioP2;P2;SDS_P1;SDS_P2;PMS_P1;PMS_P2;Temp;Humidity;BMP_temperature;BMP_pressure;BME280_temperature;BME280_humidity;BME280_pressure;Samples;Min_cycle;Max_cycle;Signal;HPM_P1;HPM_P2
2023/01/14 00:01:25;;;;;;;;;;;10.00;83.10;;;8.82;66.33;100471.81;6150615;23;19917;-82
2023/01/14 00:03:52;;;;;;;;;;;10.00;83.50;;;8.82;65.93;100474.47;6150200;23;19923;-82
2023/01/14 00:06:20;;;;;;;;;;;10.00;83.10;;;8.82;66.16;100474.47;6148150;23;19921;-82
2023/01/14 00:08:48;;;;;;;;;;;10.00;83.50;;;8.88;66.42;100468.34;6149626;23;19920;-82
2023/01/14 00:11:15;;;;;;;;;;;10.10;83.60;;;8.89;66.00;100464.69;6151121;23;20340;-82
2023/01/14 00:13:43;;;;;;;;;;;10.10;83.40;;;8.89;65.74;100464.69;6150586;23;19995;-82
2023/01/14 00:16:13;;;;;;;;;;;10.00;83.10;;;8.90;66.54;100448.53;6149896;23;19920;-82
2023/01/14 00:18:42;;;;;;;;;;;10.20;83.90;;;8.97;66.59;100449.34;6149918;23;19920;-82
2023/01/14 00:21:11;;;;;;;;;;;10.10;83.90;;;8.96;66.02;100453.03;6150608;23;19927;-82
2023/01/14 00:23:39;;;;;;;;;;;10.10;83.60;;;8.97;66.02;100452.00;6150092;23;19927;-82
2023/01/14 00:26:07;;;;;;;;;;;10.10;83.40;;;8.91;65.76;100452.81;6150415;23;19926;-82
2023/01/14 00:28:34;;;;;;;;;;;10.10;83.40;;;8.90;65.90;100453.03;6148259;23;19920;-82
2023/01/14 00:31:03;;;;;;;;;;;10.10;83.50;;;8.95;65.93;100453.25;6148539;23;19959;-82
2023/01/14 00:33:30;;;;;;;;;;;10.10;83.50;;;8.95;66.25;100461.22;6147822;23;19927;-82
2023/01/14 00:35:58;;;;;;;;;;;10.10;83.80;;;8.99;65.87;100459.81;6149611;23;19920;-82
2023/01/14 00:38:26;;;;;;;;;;;10.10;83.40;;;8.99;65.65;100454.50;6147832;23;20588;-82
2023/01/14 00:41:02;;;;;;;;;;;10.10;83.30;;;8.94;65.71;100462.25;6151056;23;19936;-82
2023/01/14 00:43:29;;;;;;;;;;;10.10;83.30;;;8.84;65.75;100473.28;6150607;23;19924;-82
2023/01/14 00:45:56;;;;;;;;;;;10.00;83.10;;;8.88;66.10;100460.38;6150025;23;20314;-82
2023/01/14 00:48:24;;;;;;;;;;;10.00;83.50;;;8.91;66.06;100471.44;6149610;23;19920;-82
2023/01/14 00:50:51;;;;;;;;;;;10.00;83.40;;;8.85;66.26;100469.59;6147852;23;19920;-82
2023/01/14 00:53:19;;;;;;;;;;;10.00;83.60;;;8.83;66.53;100462.81;6148539;23;19920;-82
2023/01/14 00:55:46;;;;;;;;;;;10.00;83.80;;;8.88;66.41;100471.00;6149734;23;20000;-82
2023/01/14 00:58:13;;;;;;;;;;;10.00;83.70;;;8.90;66.21;100472.47;6149720;23;19923;-82
2023/01/14 01:00:40;;;;;;;;;;;10.10;83.70;;;8.92;66.20;100485.56;6148894;23;19920;-82
2023/01/14 01:03:07;;;;;;;;;;;10.00;83.50;;;8.91;66.11;100481.25;6151121;23;19968;-82
2023/01/14 01:05:36;;;;;;;;;;;10.10;83.70;;;8.92;66.05;100490.88;6150349;23;19921;-82
2023/01/14 01:08:03;;;;;;;;;;;10.10;83.60;;;8.93;65.91;100492.50;6150367;23;19917;-83
2023/01/14 01:10:33;;;;;;;;;;;10.10;83.50;;;8.95;66.29;100493.97;6150774;23;19920;-82
2023/01/14 01:13:00;;;;;;;;;;;10.10;83.80;;;8.88;66.09;100508.25;6150612;23;20254;-82
2023/01/14 01:15:27;;;;;;;;;;;10.00;83.40;;;8.86;66.42;100505.78;6152177;23;19916;-82
2023/01/14 01:17:54;;;;;;;;;;;10.00;83.70;;;8.88;66.28;100510.91;6149562;23;19927;-82
2023/01/14 01:20:21;;;;;;;;;;;10.00;83.70;;;8.89;66.63;100520.56;6151719;23;20108;-82
2023/01/14 01:22:49;;;;;;;;;;;10.00;84.10;;;8.82;67.27;100522.34;6150269;23;19921;-82
2023/01/14 01:25:16;;;;;;;;;;;10.00;84.10;;;8.83;66.93;100516.00;6149978;23;19927;-83
2023/01/14 01:27:44;;;;;;;;;;;10.00;84.00;;;8.89;67.01;100505.41;6150175;23;19932;-83
2023/01/14 01:30:12;;;;;;;;;;;10.00;84.10;;;8.89;66.58;100500.09;6151042;23;19921;-82
2023/01/14 01:32:39;;;;;;;;;;;10.10;84.00;;;8.94;66.48;100504.81;6150954;23;19927;-82
2023/01/14 01:35:07;;;;;;;;;;;10.10;83.90;;;8.94;66.84;100515.47;6150639;23;19920;-82
2023/01/14 01:37:34;;;;;;;;;;;10.10;84.10;;;8.91;66.67;100514.00;6152265;23;19935;-82
2023/01/14 01:40:01;;;;;;;;;;;10.10;84.00;;;8.95;66.37;100519.75;6150229;23;20610;-82
2023/01/14 01:42:29;;;;;;;;;;;10.10;83.90;;;8.94;66.43;100529.56;6150974;23;19927;-82
2023/01/14 01:45:21;;;;;;;;;;;10.10;84.00;;;8.97;66.60;100523.84;6150753;23;19920;-82
2023/01/14 01:47:49;;;;;;;;;;;10.10;83.90;;;8.99;66.39;100528.97;6149825;23;19927;-82
2023/01/14 01:50:16;;;;;;;;;;;10.10;84.00;;;9.02;66.42;100529.38;6151989;23;19920;-82
2023/01/14 01:52:44;;;;;;;;;;;10.20;83.90;;;9.00;65.82;100527.94;6152159;23;19916;-82
2023/01/14 01:55:12;;;;;;;;;;;10.20;83.30;;;9.00;65.99;100528.78;6150843;23;19955;-82
2023/01/14 01:57:39;;;;;;;;;;;10.20;83.30;;;8.98;65.60;100530.00;6150124;23;19917;-82
2023/01/14 02:00:10;;;;;;;;;;;10.10;83.10;;;8.98;66.00;100524.69;6150526;23;19958;-82
2023/01/14 02:02:46;;;;;;;;;;;10.10;83.30;;;8.93;66.35;100519.09;6150857;23;19939;-82
2023/01/14 02:05:13;;;;;;;;;;;10.10;83.50;;;9.00;66.11;100514.66;6150533;23;20335;-83
2023/01/14 02:07:40;;;;;;;;;;;10.20;83.50;;;9.01;65.93;100518.94;6150110;23;19921;-82
2023/01/14 02:10:08;;;;;;;;;;;10.20;83.20;;;9.00;65.83;100518.13;6151307;23;19920;-82
2023/01/14 02:12:48;;;;;;;;;;;10.20;83.10;;;8.95;65.88;100511.78;6150742;23;19971;-82
2023/01/14 02:15:31;;;;;;;;;;;10.10;83.30;;;8.94;66.16;100512.78;6150224;23;19967;-82
2023/01/14 02:18:06;;;;;;;;;;;10.10;83.50;;;8.97;65.89;100518.50;6150342;23;20406;-82
2023/01/14 02:20:38;;;;;;;;;;;10.10;83.20;;;8.90;65.93;100509.69;6149530;23;20295;-82
2023/01/14 02:23:45;;;;;;;;;;;10.10;83.10;;;8.88;65.88;100505.59;6150187;23;19921;-82
2023/01/14 02:26:41;;;;;;;;;;;10.00;83.10;;;8.84;65.88;100504.38;6150151;23;19921;-83
2023/01/14 02:29:37;;;;;;;;;;;10.00;83.10;;;8.84;65.66;100507.84;6152328;23;20553;-82
2023/01/14 02:32:11;;;;;;;;;;;10.00;83.10;;;8.89;65.67;100504.59;6150489;23;19916;-82
2023/01/14 02:34:45;;;;;;;;;;;10.00;83.20;;;8.82;65.84;100503.72;6149581;23;20314;-82
2023/01/14 02:37:14;;;;;;;;;;;10.00;83.10;;;8.84;65.70;100494.56;6148863;23;19987;-82
2023/01/14 02:39:48;;;;;;;;;;;10.00;83.10;;;8.88;65.73;100497.59;6152216;23;20229;-82
2023/01/14 02:45:12;;;;;;;;;;;9.90;83.30;;;8.91;65.68;100497.22;6149993;23;20414;-82
2023/01/14 02:47:40;;;;;;;;;;;10.00;83.10;;;8.95;65.41;100495.81;6151554;23;19920;-82
2023/01/14 02:50:12;;;;;;;;;;;10.00;83.00;;;8.96;65.37;100502.75;6148824;23;19916;-82
2023/01/14 02:52:39;;;;;;;;;;;10.10;82.90;;;8.96;65.49;100500.09;6148945;23;19924;-83
2023/01/14 02:55:28;;;;;;;;;;;10.10;83.00;;;8.92;65.45;100496.19;6149110;23;19972;-82
2023/01/14 02:58:06;;;;;;;;;;;10.00;82.80;;;8.93;65.41;100479.22;6149570;23;19920;-82
2023/01/14 03:00:41;;;;;;;;;;;10.10;82.90;;;8.87;65.60;100474.69;6150279;23;20250;-82
2023/01/14 03:03:20;;;;;;;;;;;10.00;82.90;;;8.87;65.53;100483.50;6149648;23;19924;-82
2023/01/14 03:06:05;;;;;;;;;;;10.00;82.90;;;8.81;65.70;100475.50;6149876;23;20357;-82
2023/01/14 03:08:37;;;;;;;;;;;10.00;82.90;;;8.82;66.03;100459.34;6151422;23;19927;-82
2023/01/14 03:11:06;;;;;;;;;;;10.00;83.10;;;8.83;65.58;100453.00;6149678;23;19944;-82
2023/01/14 03:13:39;;;;;;;;;;;10.00;82.90;;;8.85;66.03;100453.63;6149335;23;20615;-82
2023/01/14 03:16:12;;;;;;;;;;;10.00;83.30;;;8.82;66.02;100446.03;6149446;23;19995;-82
2023/01/14 03:18:43;;;;;;;;;;;10.00;83.30;;;8.78;66.22;100444.81;6149286;23;19920;-82
2023/01/14 03:21:14;;;;;;;;;;;10.00;83.30;;;8.82;66.25;100435.41;6150081;23;19968;-82
2023/01/14 03:23:45;;;;;;;;;;;10.00;83.50;;;8.84;65.76;100441.38;6151160;23;20008;-82
2023/01/14 03:26:13;;;;;;;;;;;10.00;83.20;;;8.84;65.98;100440.56;6148883;23;19921;-82
2023/01/14 03:28:47;;;;;;;;;;;10.00;83.30;;;8.89;65.88;100441.59;6149433;23;19936;-82
2023/01/14 03:31:19;;;;;;;;;;;10.10;83.50;;;8.86;65.81;100444.63;6150016;23;19917;-82
2023/01/14 03:33:50;;;;;;;;;;;10.00;83.10;;;8.89;65.89;100446.09;6151079;23;20003;-82
2023/01/14 03:36:17;;;;;;;;;;;10.00;83.30;;;8.88;65.92;100428.47;6151032;23;19934;-82
2023/01/14 03:38:47;;;;;;;;;;;10.10;83.20;;;8.87;65.72;100432.97;6149679;23;20287;-82
2023/01/14 03:42:17;;;;;;;;;;;10.00;83.00;;;8.89;65.96;100432.78;6150920;23;19943;-82
2023/01/14 03:44:05;;;;;;;;;;;10.00;82.90;;;8.91;65.33;100428.88;6150196;23;19924;-82
2023/01/14 03:46:33;;;;;;;;;;;10.00;82.70;;;8.93;65.33;100426.88;6148544;23;19935;-82
2023/01/14 03:49:00;;;;;;;;;;;10.10;82.80;;;8.97;65.33;100425.41;6150635;23;20320;-82
2023/01/14 03:51:33;;;;;;;;;;;10.10;82.80;;;9.00;65.24;100429.53;6151269;23;19920;-82
2023/01/14 03:54:10;;;;;;;;;;;10.10;82.70;;;8.99;65.12;100423.38;6150873;23;19917;-82
2023/01/14 03:56:41;;;;;;;;;;;10.10;82.60;;;9.01;64.82;100428.50;6150932;23;19920;-83
2023/01/14 03:59:12;;;;;;;;;;;10.10;82.50;;;9.00;65.11;100421.56;6151528;23;19920;-82
2023/01/14 04:01:43;;;;;;;;;;;10.10;82.60;;;8.99;65.21;100428.72;6151089;23;19946;-82
2023/01/14 04:04:11;;;;;;;;;;;10.20;82.60;;;8.99;65.06;100423.38;6148287;23;19920;-82
2023/01/14 04:06:38;;;;;;;;;;;10.20;82.40;;;8.97;65.02;100421.94;6150805;23;19927;-82
2023/01/14 04:09:05;;;;;;;;;;;10.10;82.40;;;8.99;64.88;100418.06;6151155;23;19920;-82
2023/01/14 04:11:32;;;;;;;;;;;10.10;82.30;;;9.02;64.95;100414.16;6151559;23;20266;-82
2023/01/14 04:16:45;;;;;;;;;;;10.10;82.00;;;8.94;64.92;100406.41;6149984;23;19928;-82
2023/01/14 04:19:12;;;;;;;;;;;10.10;82.40;;;8.95;64.93;100392.06;6150209;23;19921;-82
2023/01/14 04:21:39;;;;;;;;;;;10.10;82.50;;;8.94;64.79;100396.59;6151236;23;19920;-82
2023/01/14 04:24:06;;;;;;;;;;;10.20;82.20;;;8.93;64.62;100388.78;6150860;23;20271;-82
2023/01/14 04:26:33;;;;;;;;;;;10.10;82.20;;;8.89;65.07;100387.56;6150285;23;19927;-82
2023/01/14 04:29:00;;;;;;;;;;;10.00;82.20;;;8.89;65.12;100376.94;6149566;23;20236;-82
2023/01/14 04:31:27;;;;;;;;;;;10.10;82.60;;;8.87;65.29;100373.66;6151272;23;20228;-82
2023/01/14 04:33:56;;;;;;;;;;;10.00;82.50;;;8.89;65.06;100382.25;6149747;23;19972;-82
2023/01/14 04:36:23;;;;;;;;;;;10.00;82.50;;;8.90;64.85;100373.25;6147356;23;19921;-82
2023/01/14 04:38:49;;;;;;;;;;;10.00;82.20;;;8.90;64.86;100370.59;6149938;23;19951;-82
2023/01/14 04:43:59;;;;;;;;;;;10.00;82.20;;;8.73;65.13;100370.13;6149894;23;19940;-82
2023/01/14 04:46:26;;;;;;;;;;;9.90;82.30;;;8.73;65.56;100356.84;6150602;23;20339;-82
2023/01/14 04:48:53;;;;;;;;;;;10.00;82.60;;;8.71;65.73;100364.22;6150431;23;20011;-82
2023/01/14 04:51:21;;;;;;;;;;;10.00;82.80;;;8.76;65.55;100348.47;6151109;23;19928;-82
2023/01/14 04:53:48;;;;;;;;;;;10.00;82.80;;;8.77;65.72;100347.44;6150628;23;20367;-82
2023/01/14 04:56:15;;;;;;;;;;;10.00;82.80;;;8.76;65.37;100336.00;6149820;23;19924;-82
2023/01/14 04:58:42;;;;;;;;;;;10.00;82.50;;;8.76;64.88;100337.84;6149489;23;20255;-82
2023/01/14 05:01:08;;;;;;;;;;;9.90;82.00;;;8.73;64.98;100328.41;6151010;23;20439;-82
2023/01/14 05:03:36;;;;;;;;;;;9.90;82.20;;;8.75;64.66;100323.72;6150332;23;19923;-82
2023/01/14 05:06:04;;;;;;;;;;;9.90;82.00;;;8.75;65.19;100323.72;6148233;23;19972;-82
2023/01/14 05:08:32;;;;;;;;;;;10.10;82.70;;;8.79;65.37;100324.16;6150756;23;19920;-82
2023/01/14 05:10:59;;;;;;;;;;;9.90;82.70;;;8.80;65.25;100314.31;6149210;23;19930;-82
2023/01/14 05:13:26;;;;;;;;;;;10.00;82.60;;;8.82;64.86;100306.94;6151168;23;19917;-82
2023/01/14 05:15:53;;;;;;;;;;;10.00;82.30;;;8.81;65.24;100306.13;6150380;23;19944;-82
2023/01/14 05:18:20;;;;;;;;;;;10.00;82.70;;;8.79;65.11;100307.38;6149804;23;19924;-82
2023/01/14 05:20:46;;;;;;;;;;;10.00;82.20;;;8.81;65.00;100295.50;6150700;23;19923;-82
2023/01/14 05:23:15;;;;;;;;;;;10.00;82.20;;;8.74;64.98;100290.19;6150325;23;19948;-79
2023/01/14 05:25:44;;;;;;;;;;;9.90;82.00;;;8.79;64.92;100286.91;6149675;23;19920;-78
2023/01/14 05:28:13;;;;;;;;;;;9.90;82.20;;;8.84;64.82;100287.13;6150037;23;19922;-79
2023/01/14 05:30:40;;;;;;;;;;;10.00;82.20;;;8.83;65.06;100282.00;6151069;23;20283;-79
2023/01/14 05:33:07;;;;;;;;;;;10.00;82.30;;;8.82;64.96;100272.38;6150529;23;19927;-79
2023/01/14 05:35:34;;;;;;;;;;;10.00;82.00;;;8.79;64.46;100275.47;6149991;23;20267;-79
2023/01/14 05:38:01;;;;;;;;;;;10.00;81.60;;;8.79;64.55;100272.81;6150202;23;19916;-78
2023/01/14 05:40:28;;;;;;;;;;;9.90;81.90;;;8.74;64.16;100262.78;6151150;23;19920;-79
2023/01/14 05:45:48;;;;;;;;;;;9.90;82.00;;;8.76;64.39;100245.59;6148120;23;20252;-79
2023/01/14 05:48:16;;;;;;;;;;;9.90;81.80;;;8.79;64.37;100251.53;6151179;23;19972;-79
2023/01/14 05:50:43;;;;;;;;;;;9.90;81.80;;;8.78;64.30;100242.72;6152507;23;20295;-79
2023/01/14 05:53:10;;;;;;;;;;;10.00;81.80;;;8.77;64.50;100241.91;6151168;23;20019;-79
2023/01/14 05:55:38;;;;;;;;;;;10.00;81.80;;;8.76;64.46;100236.81;6152141;23;19916;-79
2023/01/14 05:58:06;;;;;;;;;;;10.00;81.90;;;8.77;64.53;100230.44;6152180;23;20007;-79
2023/01/14 06:06:23;;;;;;;;;;;10.00;81.10;;;8.76;63.51;100237.63;6152121;23;20303;-79
2023/01/14 06:08:51;;;;;;;;;;;9.90;80.60;;;8.76;63.69;100226.97;6151902;23;19927;-79
2023/01/14 06:11:19;;;;;;;;;;;10.00;81.20;;;8.75;63.22;100220.03;6152388;23;19920;-79
2023/01/14 06:13:47;;;;;;;;;;;9.90;80.50;;;8.76;63.71;100218.19;6151560;23;19917;-79
2023/01/14 06:16:15;;;;;;;;;;;10.00;80.90;;;8.76;62.74;100213.69;6151726;23;19920;-78
2023/01/14 06:18:42;;;;;;;;;;;9.90;80.00;;;8.76;63.19;100205.72;6151602;23;19939;-77
2023/01/14 06:21:11;;;;;;;;;;;9.90;80.70;;;8.73;62.96;100197.31;6151712;23;20406;-76
2023/01/14 06:23:38;;;;;;;;;;;9.90;80.40;;;8.71;63.16;100188.75;6152285;23;19936;-76
2023/01/14 06:26:08;;;;;;;;;;;9.80;80.40;;;8.73;63.19;100176.88;6151103;23;19920;-76
2023/01/14 06:28:35;;;;;;;;;;;9.90;80.80;;;8.76;63.33;100180.97;6152337;23;19920;-76
2023/01/14 06:31:09;;;;;;;;;;;9.90;80.80;;;8.73;63.17;100170.72;6152421;23;19920;-76
2023/01/14 06:33:36;;;;;;;;;;;9.90;80.60;;;8.70;63.43;100168.50;6151876;23;20015;-76
2023/01/14 06:36:03;;;;;;;;;;;9.90;80.70;;;8.71;63.28;100162.97;6151092;23;19955;-76
2023/01/14 06:38:30;;;;;;;;;;;9.90;80.70;;;8.65;62.31;100155.81;6152830;23;20019;-75
2023/01/14 06:40:59;;;;;;;;;;;9.80;79.50;;;8.62;63.01;100152.75;6151990;23;19917;-75
2023/01/14 06:43:26;;;;;;;;;;;9.80;80.10;;;8.58;63.28;100144.38;6151801;23;19927;-75
2023/01/14 06:45:53;;;;;;;;;;;9.80;80.40;;;8.60;62.57;100138.88;6151835;23;19920;-76
2023/01/14 06:48:21;;;;;;;;;;;9.80;79.70;;;8.64;62.93;100140.09;6151457;23;19920;-75
2023/01/14 06:50:49;;;;;;;;;;;9.80;80.20;;;8.67;63.32;100135.16;6152004;23;19920;-75
2023/01/14 06:53:17;;;;;;;;;;;9.80;80.70;;;8.62;63.13;100134.97;6151821;23;20015;-75
2023/01/14 06:55:44;;;;;;;;;;;9.80;80.40;;;8.66;63.44;100127.41;6150086;23;19920;-75
2023/01/14 06:58:11;;;;;;;;;;;9.90;80.70;;;8.64;63.15;100114.31;6151346;23;20003;-77
2023/01/14 07:00:38;;;;;;;;;;;9.80;80.50;;;8.63;62.49;100112.66;6151642;23;20541;-76
2023/01/14 07:03:05;;;;;;;;;;;9.80;79.60;;;8.59;62.91;100105.31;6151415;23;19921;-76
2023/01/14 07:05:33;;;;;;;;;;;9.80;80.40;;;8.59;62.77;100095.53;6151017;23;19938;-76
2023/01/14 07:08:00;;;;;;;;;;;9.80;79.90;;;8.57;62.95;100094.91;6151471;23;19921;-77
2023/01/14 07:10:27;;;;;;;;;;;9.80;80.40;;;8.59;63.03;100098.19;6151867;23;19917;-76
2023/01/14 07:12:54;;;;;;;;;;;9.70;80.30;;;8.54;62.72;100092.66;6151194;23;20603;-76
2023/01/14 07:15:21;;;;;;;;;;;9.90;79.90;;;8.56;63.47;100077.31;6151321;23;19920;-77
2023/01/14 07:17:50;;;;;;;;;;;9.80;80.60;;;8.52;63.54;100094.69;6151525;23;20338;-77
2023/01/14 07:20:18;;;;;;;;;;;9.80;80.60;;;8.57;64.06;100084.25;6151667;23;19944;-76
2023/01/14 07:22:46;;;;;;;;;;;9.80;81.00;;;8.55;64.26;100083.66;6151450;23;19931;-76
2023/01/14 07:25:13;;;;;;;;;;;9.80;81.40;;;8.55;64.67;100074.88;6151592;23;19923;-76
2023/01/14 07:27:40;;;;;;;;;;;9.80;81.50;;;8.50;65.23;100063.03;6150936;23;19920;-85
2023/01/14 07:30:08;;;;;;;;;;;9.70;81.80;;;8.54;65.04;100055.47;6151230;23;19920;-77
2023/01/14 07:32:35;;;;;;;;;;;9.70;82.00;;;8.57;65.72;100057.69;6151204;23;19967;-77
2023/01/14 07:35:02;;;;;;;;;;;9.70;82.70;;;8.56;65.64;100045.44;6149094;23;19916;-77
2023/01/14 07:37:30;;;;;;;;;;;9.70;82.70;;;8.58;66.10;100045.22;6149529;23;19921;-77
2023/01/14 07:39:58;;;;;;;;;;;9.80;83.10;;;8.54;65.96;100036.84;6151259;23;19920;-76
2023/01/14 07:42:26;;;;;;;;;;;9.70;83.10;;;8.56;66.58;100026.81;6149387;23;19920;-77
2023/01/14 07:44:53;;;;;;;;;;;9.70;83.50;;;8.55;66.24;100019.06;6151027;23;20101;-77
2023/01/14 07:47:20;;;;;;;;;;;9.70;83.30;;;8.47;66.73;100012.13;6150717;23;19927;-76
2023/01/14 07:49:47;;;;;;;;;;;9.60;83.70;;;8.46;66.94;100013.16;6151594;23;19920;-76
2023/01/14 07:52:14;;;;;;;;;;;9.60;84.10;;;8.41;67.59;100002.34;6150945;23;19920;-76
2023/01/14 07:54:42;;;;;;;;;;;9.60;84.30;;;8.37;67.99;100001.13;6151837;23;19927;-76
2023/01/14 07:57:11;;;;;;;;;;;9.60;84.50;;;8.37;68.05;99998.47;6151085;23;19973;-76
2023/01/14 07:59:38;;;;;;;;;;;9.60;84.70;;;8.29;68.49;99994.13;6151225;23;19999;-77
2023/01/14 08:02:09;;;;;;;;;;;9.60;85.00;;;8.31;68.76;99996.59;6151116;23;19920;-78
2023/01/14 08:04:36;;;;;;;;;;;9.50;85.20;;;8.35;68.93;99995.19;6147820;23;19943;-77
2023/01/14 08:07:06;;;;;;;;;;;9.60;85.50;;;8.39;69.04;99978.59;6146200;23;19920;-77
2023/01/14 08:09:33;;;;;;;;;;;9.60;85.60;;;8.41;69.32;99970.44;6149031;23;19923;-77
2023/01/14 08:12:00;;;;;;;;;;;9.60;85.60;;;8.44;69.46;99965.53;6151119;23;19920;-77
2023/01/14 08:14:28;;;;;;;;;;;9.60;85.80;;;8.41;69.69;99952.66;6151191;23;19921;-77
2023/01/14 08:16:55;;;;;;;;;;;9.60;85.90;;;8.43;69.54;99949.78;6150348;23;19935;-76
2023/01/14 08:19:22;;;;;;;;;;;9.60;85.90;;;8.38;69.84;99953.06;6151281;23;19926;-77
2023/01/14 08:21:49;;;;;;;;;;;9.60;86.00;;;8.39;70.00;99943.25;6150948;23;19932;-76
2023/01/14 08:24:16;;;;;;;;;;;9.60;86.10;;;8.37;70.31;99937.34;6150533;23;19916;-77
2023/01/14 08:26:43;;;;;;;;;;;9.60;86.30;;;8.33;69.90;99925.47;6148272;23;19920;-76
2023/01/14 08:29:09;;;;;;;;;;;9.60;86.20;;;8.38;70.04;99923.03;6151074;23;19927;-77
2023/01/14 08:31:40;;;;;;;;;;;9.60;86.40;;;8.40;69.99;99921.81;6151372;23;19921;-77
2023/01/14 08:34:07;;;;;;;;;;;9.60;86.40;;;8.39;70.17;99925.47;6150739;23;19924;-77
2023/01/14 08:36:34;;;;;;;;;;;9.60;86.50;;;8.42;70.58;99917.09;6148126;23;19920;-77
2023/01/14 08:39:01;;;;;;;;;;;9.60;86.70;;;8.44;70.40;99898.25;6150942;23;20259;-76
2023/01/14 08:41:28;;;;;;;;;;;9.60;86.60;;;8.46;70.93;99898.88;6148760;23;20365;-77
2023/01/14 08:43:56;;;;;;;;;;;9.60;87.10;;;8.47;71.01;99895.19;6150794;23;19920;-81
2023/01/14 08:46:23;;;;;;;;;;;9.60;87.10;;;8.43;70.91;99881.50;6148684;23;20254;-77
2023/01/14 08:48:51;;;;;;;;;;;9.60;87.20;;;8.43;71.04;99880.69;6150349;23;20644;-77
2023/01/14 08:51:20;;;;;;;;;;;9.60;87.30;;;8.41;71.22;99875.59;6150002;23;19916;-79
2023/01/14 08:53:47;;;;;;;;;;;9.60;87.20;;;8.40;71.28;99873.97;6150855;23;19920;-83
2023/01/14 08:56:16;;;;;;;;;;;9.70;87.50;;;8.35;71.72;99855.19;6150437;23;19917;-84
2023/01/14 08:58:43;;;;;;;;;;;9.60;87.50;;;8.39;71.71;99847.59;6150009;23;19924;-78
2023/01/14 09:01:10;;;;;;;;;;;9.60;87.50;;;8.40;71.71;99847.41;6149917;23;20414;-76
2023/01/14 09:03:38;;;;;;;;;;;9.60;87.40;;;8.41;71.75;99846.38;6150954;23;19927;-77
2023/01/14 09:06:09;;;;;;;;;;;9.60;87.50;;;8.46;71.35;99835.13;6150462;23;19927;-77
2023/01/14 09:17:07;;;;;;;;;;;9.60;87.50;;;8.35;70.85;99794.06;6150622;23;19920;-77
2023/01/14 09:19:36;;;;;;;;;;;9.60;87.10;;;8.39;71.41;99792.63;6150210;23;19999;-76
2023/01/14 09:22:05;;;;;;;;;;;9.60;87.50;;;8.38;71.32;99783.03;6148820;23;20351;-76
2023/01/14 09:24:32;;;;;;;;;;;9.60;87.50;;;8.41;71.67;99761.34;6148806;23;19927;-76
2023/01/14 09:26:59;;;;;;;;;;;9.60;87.70;;;8.47;71.48;99768.47;6149696;23;19940;-76
2023/01/14 09:29:27;;;;;;;;;;;9.60;87.70;;;8.48;71.72;99748.00;6152488;23;20336;-77
2023/01/14 09:31:53;;;;;;;;;;;9.70;87.90;;;8.49;71.29;99746.97;6151925;23;19932;-77
2023/01/14 09:34:20;;;;;;;;;;;9.60;87.50;;;8.49;71.33;99757.59;6151432;23;19927;-75
2023/01/14 09:36:49;;;;;;;;;;;9.60;87.50;;;8.54;71.40;99743.66;6151831;23;19942;-75
2023/01/14 09:39:18;;;;;;;;;;;9.70;87.90;;;8.59;71.55;99739.38;6151979;23;19950;-76
2023/01/14 09:41:52;;;;;;;;;;;9.70;87.90;;;8.55;71.63;99726.72;6148801;23;19923;-76
2023/01/14 09:44:19;;;;;;;;;;;9.80;87.70;;;8.54;71.49;99712.63;6151606;23;19967;-76
2023/01/14 09:46:46;;;;;;;;;;;9.80;87.70;;;8.52;71.20;99717.31;6150847;23;19921;-76
2023/01/14 09:49:16;;;;;;;;;;;9.70;87.40;;;8.52;71.40;99712.00;6150648;23;20251;-75
2023/01/14 09:51:56;;;;;;;;;;;9.70;87.70;;;8.51;71.66;99705.06;6152104;23;19921;-76
2023/01/14 09:54:28;;;;;;;;;;;9.70;87.80;;;8.50;71.79;99693.63;6150842;23;19921;-75
2023/01/14 09:57:00;;;;;;;;;;;9.70;88.00;;;8.54;71.36;99698.50;6151215;23;20343;-76
2023/01/14 09:59:34;;;;;;;;;;;9.70;87.60;;;8.52;71.55;99682.78;6151980;23;19927;-76
2023/01/14 10:02:04;;;;;;;;;;;9.70;87.70;;;8.58;71.44;99679.25;6151846;23;19959;-76
2023/01/14 10:04:54;;;;;;;;;;;9.80;87.70;;;8.58;71.48;99673.13;6151798;23;19995;-76
2023/01/14 10:07:22;;;;;;;;;;;9.80;87.70;;;8.58;71.66;99646.53;6151809;23;19948;-76
2023/01/14 10:09:54;;;;;;;;;;;9.80;87.70;;;8.61;71.50;99630.16;6151964;23;19928;-75
2023/01/14 10:12:24;;;;;;;;;;;9.80;87.70;;;8.55;71.85;99634.53;6150931;23;20011;-76
2023/01/14 10:14:58;;;;;;;;;;;9.70;87.80;;;8.54;71.77;99634.72;6150572;23;19986;-76
2023/01/14 10:17:27;;;;;;;;;;;9.70;87.90;;;8.53;72.07;99633.91;6149897;23;20354;-76
2023/01/14 10:19:54;;;;;;;;;;;9.80;87.90;;;8.50;72.76;99615.75;6152129;23;19920;-76
2023/01/14 10:22:33;;;;;;;;;;;9.70;88.50;;;8.47;73.29;99627.63;6151186;23;19928;-75
2023/01/14 10:25:01;;;;;;;;;;;9.70;89.10;;;8.48;74.11;99617.81;6150611;23;19968;-76
2023/01/14 10:27:31;;;;;;;;;;;9.70;89.60;;;8.51;74.17;99601.44;6150810;23;19921;-76
2023/01/14 10:30:13;;;;;;;;;;;9.70;89.70;;;8.52;74.18;99600.41;6152040;23;20315;-77
2023/01/14 10:32:40;;;;;;;;;;;9.70;89.70;;;8.55;74.46;99581.38;6151517;23;19916;-77
2023/01/14 10:35:12;;;;;;;;;;;9.80;89.90;;;8.57;74.61;99562.53;6150557;23;19927;-77
2023/01/14 10:37:39;;;;;;;;;;;9.80;90.00;;;8.57;74.65;99565.19;6149760;23;19921;-86
2023/01/14 10:40:16;;;;;;;;;;;9.70;90.10;;;8.58;75.20;99556.19;6150639;23;20470;-76
2023/01/14 10:42:43;;;;;;;;;;;9.70;90.70;;;8.62;75.34;99555.53;6151208;23;19971;-77
2023/01/14 10:45:12;;;;;;;;;;;9.80;90.80;;;8.57;75.74;99544.75;6149557;23;20518;-76
2023/01/14 10:47:40;;;;;;;;;;;9.80;90.90;;;8.56;76.01;99551.09;6150915;23;19920;-77
2023/01/14 10:50:17;;;;;;;;;;;9.80;91.00;;;8.57;75.98;99539.44;6150051;23;19920;-76
2023/01/14 10:52:44;;;;;;;;;;;9.80;91.20;;;8.60;76.10;99543.50;6150475;23;19944;-76
2023/01/14 10:55:16;;;;;;;;;;;9.70;91.40;;;8.54;76.71;99539.03;6150987;23;20027;-76
2023/01/14 10:57:50;;;;;;;;;;;9.70;91.80;;;8.54;77.07;99523.94;6151515;23;19955;-76
2023/01/14 11:00:30;;;;;;;;;;;9.70;92.30;;;8.57;77.43;99526.13;6148961;23;19953;-76
2023/01/14 11:02:58;;;;;;;;;;;9.70;92.20;;;8.61;77.23;99510.56;6148839;23;19920;-77
2023/01/14 11:05:28;;;;;;;;;;;9.80;92.20;;;8.62;77.42;99499.72;6151450;23;19923;-76
2023/01/14 11:07:57;;;;;;;;;;;9.80;92.30;;;8.62;77.61;99502.38;6149759;23;20344;-76
2023/01/14 11:10:28;;;;;;;;;;;9.80;92.40;;;8.63;77.65;99485.38;6151466;23;19920;-77
2023/01/14 11:13:13;;;;;;;;;;;9.80;92.60;;;8.63;77.85;99473.94;6148401;23;19947;-77
2023/01/14 11:15:45;;;;;;;;;;;9.80;92.60;;;8.61;77.93;99460.88;6151486;23;19920;-77
2023/01/14 11:18:27;;;;;;;;;;;9.80;92.60;;;8.59;77.99;99457.66;6150632;23;19920;-76
2023/01/14 11:21:00;;;;;;;;;;;9.80;93.00;;;8.62;78.15;99448.41;6150863;23;19920;-77
2023/01/14 11:23:29;;;;;;;;;;;9.80;93.20;;;8.62;78.60;99441.25;6150806;23;19920;-77
2023/01/14 11:25:59;;;;;;;;;;;9.80;93.30;;;8.65;78.42;99424.03;6149456;23;19916;-77
2023/01/14 11:28:26;;;;;;;;;;;9.80;93.20;;;8.64;78.66;99409.94;6149915;23;19916;-77
2023/01/14 11:30:54;;;;;;;;;;;9.80;93.30;;;8.61;78.52;99417.56;6151114;23;19927;-77
2023/01/14 11:33:23;;;;;;;;;;;9.90;93.60;;;8.56;79.34;99404.94;6150843;23;20344;-77
2023/01/14 11:35:52;;;;;;;;;;;9.80;93.90;;;8.55;79.56;99394.53;6150216;23;19924;-77
2023/01/14 11:38:21;;;;;;;;;;;9.80;94.00;;;8.59;79.39;99388.56;6150420;23;20333;-77
2023/01/14 11:43:53;;;;;;;;;;;10.00;94.20;;;8.64;79.37;99367.44;6151518;23;19928;-76
2023/01/14 11:46:20;;;;;;;;;;;9.80;94.00;;;8.62;79.61;99348.22;6148426;23;19920;-76
2023/01/14 11:48:59;;;;;;;;;;;9.80;94.20;;;8.65;79.82;99337.16;6150489;23;19920;-76
2023/01/14 11:51:27;;;;;;;;;;;9.80;94.30;;;8.63;79.98;99333.88;6150793;23;20006;-77
2023/01/14 11:53:55;;;;;;;;;;;9.80;94.50;;;8.62;80.34;99318.19;6150306;23;19921;-76
2023/01/14 11:56:28;;;;;;;;;;;9.80;94.60;;;8.57;80.94;99310.88;6150281;23;19924;-76
2023/01/14 11:58:57;;;;;;;;;;;9.80;95.00;;;8.63;80.92;99309.97;6150852;23;20299;-79
2023/01/14 12:01:28;;;;;;;;;;;9.80;94.80;;;8.68;80.87;99296.81;6149375;23;19928;-80
2023/01/14 12:04:02;;;;;;;;;;;9.80;94.90;;;8.66;80.76;99293.56;6148771;23;19921;-76